sensor_id;sensor_type;location;lat;lon;timestamp;pressure;altitude;pressure_sealevel;temperature;humidity
62946;BME280;52164;52.212;-1.010;2022-08-11T00:01:45;101437.64;;;20.12;53.97
62946;BME280;52164;52.212;-1.010;2022-08-11T00:04:12;101440.66;;;20.08;54.10
62946;BME280;52164;52.212;-1.010;2022-08-11T00:06:40;101439.73;;;20.01;54.20
62946;BME280;52164;52.212;-1.010;2022-08-11T00:09:08;101440.14;;;19.99;54.33
62946;BME280;52164;52.212;-1.010;2022-08-11T00:11:43;101438.42;;;19.95;54.38
62946;BME280;52164;52.212;-1.010;2022-08-11T00:14:20;101435.48;;;19.90;54.57
62946;BME280;52164;52.212;-1.010;2022-08-11T00:16:56;101435.77;;;19.84;54.51
62946;BME280;52164;52.212;-1.010;2022-08-11T00:19:25;101433.20;;;19.79;54.67
62946;BME280;52164;52.212;-1.010;2022-08-11T00:21:52;101433.27;;;19.75;54.76
62946;BME280;52164;52.212;-1.010;2022-08-11T00:24:19;101435.70;;;19.71;54.88
62946;BME280;52164;52.212;-1.010;2022-08-11T00:26:48;101433.61;;;19.67;54.88
62946;BME280;52164;52.212;-1.010;2022-08-11T00:29:14;101432.69;;;19.61;54.96
62946;BME280;52164;52.212;-1.010;2022-08-11T00:31:47;101435.92;;;19.54;55.06
62946;BME280;52164;52.212;-1.010;2022-08-11T00:34:20;101437.15;;;19.47;55.16
62946;BME280;52164;52.212;-1.010;2022-08-11T00:36:51;101437.14;;;19.39;55.14
62946;BME280;52164;52.212;-1.010;2022-08-11T00:39:20;101437.13;;;19.31;55.30
62946;BME280;52164;52.212;-1.010;2022-08-11T00:42:05;101442.73;;;19.24;55.34
62946;BME280;52164;52.212;-1.010;2022-08-11T00:44:56;101439.09;;;19.16;55.50
62946;BME280;52164;52.212;-1.010;2022-08-11T00:47:41;101437.17;;;19.04;55.76
62946;BME280;52164;52.212;-1.010;2022-08-11T00:50:59;101432.86;;;18.93;55.85
62946;BME280;52164;52.212;-1.010;2022-08-11T00:53:54;101435.96;;;18.81;56.14
62946;BME280;52164;52.212;-1.010;2022-08-11T00:59:47;101427.61;;;18.63;56.59
62946;BME280;52164;52.212;-1.010;2022-08-11T01:02:18;101433.34;;;18.57;56.85
62946;BME280;52164;52.212;-1.010;2022-08-11T01:05:02;101435.80;;;18.50;57.09
62946;BME280;52164;52.212;-1.010;2022-08-11T01:11:14;101429.41;;;18.34;57.52
62946;BME280;52164;52.212;-1.010;2022-08-11T01:13:56;101425.70;;;18.29;57.73
62946;BME280;52164;52.212;-1.010;2022-08-11T01:16:53;101424.02;;;18.22;58.01
62946;BME280;52164;52.212;-1.010;2022-08-11T01:19:49;101425.95;;;18.15;58.13
62946;BME280;52164;52.212;-1.010;2022-08-11T01:30:13;101422.29;;;18.07;58.35
62946;BME280;52164;52.212;-1.010;2022-08-11T01:31:17;101421.98;;;18.03;58.36
62946;BME280;52164;52.212;-1.010;2022-08-11T01:32:00;101425.32;;;17.98;58.58
62946;BME280;52164;52.212;-1.010;2022-08-11T01:37:01;101421.98;;;17.92;58.53
62946;BME280;52164;52.212;-1.010;2022-08-11T01:37:48;101419.15;;;17.86;58.63
62946;BME280;52164;52.212;-1.010;2022-08-11T01:43:00;101416.52;;;17.81;58.60
62946;BME280;52164;52.212;-1.010;2022-08-11T01:46:34;101412.69;;;17.72;59.08
62946;BME280;52164;52.212;-1.010;2022-08-11T01:49:11;101409.67;;;17.69;59.00
62946;BME280;52164;52.212;-1.010;2022-08-11T01:57:35;101412.89;;;17.59;59.14
62946;BME280;52164;52.212;-1.010;2022-08-11T01:59:33;101410.48;;;17.63;59.11
62946;BME280;52164;52.212;-1.010;2022-08-11T02:00:20;101412.59;;;17.54;59.07
62946;BME280;52164;52.212;-1.010;2022-08-11T02:03:01;101413.77;;;17.48;59.18
62946;BME280;52164;52.212;-1.010;2022-08-11T02:05:58;101416.73;;;17.43;59.26
62946;BME280;52164;52.212;-1.010;2022-08-11T02:10:43;101416.29;;;17.36;59.41
62946;BME280;52164;52.212;-1.010;2022-08-11T02:11:26;101419.13;;;17.26;59.56
62946;BME280;52164;52.212;-1.010;2022-08-11T02:14:25;101418.83;;;17.20;59.77
62946;BME280;52164;52.212;-1.010;2022-08-11T02:20:25;101421.49;;;17.11;60.01
62946;BME280;52164;52.212;-1.010;2022-08-11T02:26:45;101422.05;;;16.94;59.97
62946;BME280;52164;52.212;-1.010;2022-08-11T02:29:21;101418.89;;;16.85;60.07
62946;BME280;52164;52.212;-1.010;2022-08-11T02:32:28;101418.59;;;16.79;60.17
62946;BME280;52164;52.212;-1.010;2022-08-11T02:36:09;101416.14;;;16.71;60.43
62946;BME280;52164;52.212;-1.010;2022-08-11T02:38:11;101413.29;;;16.69;60.34
62946;BME280;52164;52.212;-1.010;2022-08-11T02:43:03;101410.41;;;16.67;60.34
62946;BME280;52164;52.212;-1.010;2022-08-11T02:43:34;101409.55;;;16.63;60.47
62946;BME280;52164;52.212;-1.010;2022-08-11T02:46:17;101405.98;;;16.61;60.67
62946;BME280;52164;52.212;-1.010;2022-08-11T02:48:55;101409.23;;;16.60;60.80
62946;BME280;52164;52.212;-1.010;2022-08-11T02:52:16;101411.06;;;16.57;60.92
62946;BME280;52164;52.212;-1.010;2022-08-11T02:55:39;101412.57;;;16.51;60.99
62946;BME280;52164;52.212;-1.010;2022-08-11T02:57:58;101412.80;;;16.46;61.24
62946;BME280;52164;52.212;-1.010;2022-08-11T03:00:29;101412.13;;;16.40;61.19
62946;BME280;52164;52.212;-1.010;2022-08-11T03:03:16;101411.61;;;16.39;61.14
62946;BME280;52164;52.212;-1.010;2022-08-11T03:06:07;101412.35;;;16.37;61.15
62946;BME280;52164;52.212;-1.010;2022-08-11T03:08:58;101407.88;;;16.33;61.28
62946;BME280;52164;52.212;-1.010;2022-08-11T03:11:31;101406.13;;;16.28;61.27
62946;BME280;52164;52.212;-1.010;2022-08-11T03:14:32;101408.35;;;16.22;61.39
62946;BME280;52164;52.212;-1.010;2022-08-11T03:20:27;101410.43;;;16.11;61.48
62946;BME280;52164;52.212;-1.010;2022-08-11T03:23:02;101411.19;;;16.06;61.61
62946;BME280;52164;52.212;-1.010;2022-08-11T03:29:19;101408.73;;;15.97;61.44
62946;BME280;52164;52.212;-1.010;2022-08-11T03:31:29;101407.54;;;15.89;61.58
62946;BME280;52164;52.212;-1.010;2022-08-11T03:33:50;101405.45;;;15.81;61.68
62946;BME280;52164;52.212;-1.010;2022-08-11T03:39:44;101406.93;;;15.68;62.30
62946;BME280;52164;52.212;-1.010;2022-08-11T03:42:40;101408.57;;;15.65;62.46
62946;BME280;52164;52.212;-1.010;2022-08-11T03:45:20;101408.20;;;15.66;62.41
62946;BME280;52164;52.212;-1.010;2022-08-11T03:48:02;101406.23;;;15.67;62.44
62946;BME280;52164;52.212;-1.010;2022-08-11T03:51:05;101402.09;;;15.67;62.48
62946;BME280;52164;52.212;-1.010;2022-08-11T03:56:28;101398.33;;;15.64;62.52
62946;BME280;52164;52.212;-1.010;2022-08-11T03:59:11;101396.37;;;15.59;62.53
62946;BME280;52164;52.212;-1.010;2022-08-11T04:07:25;101393.02;;;15.48;62.46
62946;BME280;52164;52.212;-1.010;2022-08-11T04:10:36;101392.88;;;15.44;62.35
62946;BME280;52164;52.212;-1.010;2022-08-11T04:16:43;101392.61;;;15.28;62.80
62946;BME280;52164;52.212;-1.010;2022-08-11T04:22:52;101397.52;;;15.15;62.75
62946;BME280;52164;52.212;-1.010;2022-08-11T04:27:37;101395.77;;;15.07;62.90
62946;BME280;52164;52.212;-1.010;2022-08-11T04:30:27;101398.12;;;15.04;62.93
62946;BME280;52164;52.212;-1.010;2022-08-11T04:36:26;101402.65;;;14.92;63.11
62946;BME280;52164;52.212;-1.010;2022-08-11T04:39:23;101402.15;;;14.89;63.27
62946;BME280;52164;52.212;-1.010;2022-08-11T04:42:06;101403.77;;;14.87;63.54
62946;BME280;52164;52.212;-1.010;2022-08-11T04:47:12;101407.54;;;14.87;63.81
62946;BME280;52164;52.212;-1.010;2022-08-11T04:47:55;101406.64;;;14.87;63.59
62946;BME280;52164;52.212;-1.010;2022-08-11T04:56:36;101403.38;;;14.91;63.37
62946;BME280;52164;52.212;-1.010;2022-08-11T04:57:40;101403.75;;;14.87;63.35
62946;BME280;52164;52.212;-1.010;2022-08-11T05:00:44;101403.59;;;14.83;63.62
62946;BME280;52164;52.212;-1.010;2022-08-11T05:04:34;101409.88;;;14.83;63.69
62946;BME280;52164;52.212;-1.010;2022-08-11T05:12:53;101407.90;;;14.86;63.97
62946;BME280;52164;52.212;-1.010;2022-08-11T05:15:56;101416.16;;;14.86;64.01
62946;BME280;52164;52.212;-1.010;2022-08-11T05:18:30;101415.98;;;14.88;64.00
62946;BME280;52164;52.212;-1.010;2022-08-11T05:21:20;101415.94;;;14.94;64.00
62946;BME280;52164;52.212;-1.010;2022-08-11T05:24:12;101415.94;;;15.01;63.99
62946;BME280;52164;52.212;-1.010;2022-08-11T05:27:02;101421.13;;;15.05;63.74
62946;BME280;52164;52.212;-1.010;2022-08-11T05:30:03;101421.45;;;15.12;63.68
62946;BME280;52164;52.212;-1.010;2022-08-11T05:33:09;101421.25;;;15.16;63.56
62946;BME280;52164;52.212;-1.010;2022-08-11T05:36:21;101419.25;;;15.22;63.34
62946;BME280;52164;52.212;-1.010;2022-08-11T05:38:57;101424.44;;;15.29;63.03
62946;BME280;52164;52.212;-1.010;2022-08-11T05:41:43;101426.92;;;15.36;63.08
62946;BME280;52164;52.212;-1.010;2022-08-11T05:44:29;101425.81;;;15.41;62.93
62946;BME280;52164;52.212;-1.010;2022-08-11T05:47:24;101428.49;;;15.45;62.71
62946;BME280;52164;52.212;-1.010;2022-08-11T05:50:11;101426.69;;;15.44;63.03
62946;BME280;52164;52.212;-1.010;2022-08-11T05:52:58;101426.52;;;15.44;63.14
62946;BME280;52164;52.212;-1.010;2022-08-11T05:55:45;101424.16;;;15.45;63.30
62946;BME280;52164;52.212;-1.010;2022-08-11T05:58:34;101422.01;;;15.45;63.45
62946;BME280;52164;52.212;-1.010;2022-08-11T06:01:00;101422.20;;;15.45;63.49
62946;BME280;52164;52.212;-1.010;2022-08-11T06:03:28;101421.28;;;15.46;63.58
62946;BME280;52164;52.212;-1.010;2022-08-11T06:05:56;101422.52;;;15.51;63.60
62946;BME280;52164;52.212;-1.010;2022-08-11T06:08:28;101421.39;;;15.57;63.73
62946;BME280;52164;52.212;-1.010;2022-08-11T06:10:59;101421.54;;;15.62;63.91
62946;BME280;52164;52.212;-1.010;2022-08-11T06:13:26;101419.52;;;15.71;64.08
62946;BME280;52164;52.212;-1.010;2022-08-11T06:15:52;101416.77;;;15.80;64.22
62946;BME280;52164;52.212;-1.010;2022-08-11T06:18:20;101419.77;;;15.92;64.12
62946;BME280;52164;52.212;-1.010;2022-08-11T06:20:49;101420.56;;;16.03;64.25
62946;BME280;52164;52.212;-1.010;2022-08-11T06:23:17;101419.38;;;16.16;64.22
62946;BME280;52164;52.212;-1.010;2022-08-11T06:25:45;101418.36;;;16.28;64.15
62946;BME280;52164;52.212;-1.010;2022-08-11T06:28:12;101417.20;;;16.39;64.09
62946;BME280;52164;52.212;-1.010;2022-08-11T06:30:42;101423.58;;;16.50;63.96
62946;BME280;52164;52.212;-1.010;2022-08-11T06:33:12;101422.92;;;16.61;63.92
62946;BME280;52164;52.212;-1.010;2022-08-11T06:36:01;101420.30;;;16.70;63.73
62946;BME280;52164;52.212;-1.010;2022-08-11T06:39:14;101421.60;;;16.84;63.68
62946;BME280;52164;52.212;-1.010;2022-08-11T06:41:33;101422.21;;;16.96;63.63
62946;BME280;52164;52.212;-1.010;2022-08-11T06:44:06;101424.95;;;17.08;63.52
62946;BME280;52164;52.212;-1.010;2022-08-11T06:46:36;101422.47;;;17.19;63.35
62946;BME280;52164;52.212;-1.010;2022-08-11T06:49:06;101420.38;;;17.26;63.03
62946;BME280;52164;52.212;-1.010;2022-08-11T06:51:53;101419.51;;;17.38;63.09
62946;BME280;52164;52.212;-1.010;2022-08-11T06:54:21;101413.77;;;17.48;63.04
62946;BME280;52164;52.212;-1.010;2022-08-11T06:56:47;101414.30;;;17.60;62.82
62946;BME280;52164;52.212;-1.010;2022-08-11T06:59:34;101412.48;;;17.73;62.67
62946;BME280;52164;52.212;-1.010;2022-08-11T07:02:27;101407.77;;;17.87;62.55
62946;BME280;52164;52.212;-1.010;2022-08-11T07:05:00;101405.79;;;17.99;62.44
62946;BME280;52164;52.212;-1.010;2022-08-11T07:12:23;101405.80;;;18.30;62.02
62946;BME280;52164;52.212;-1.010;2022-08-11T07:14:24;101402.80;;;18.46;61.40
62946;BME280;52164;52.212;-1.010;2022-08-11T07:17:15;101401.63;;;18.61;61.03
62946;BME280;52164;52.212;-1.010;2022-08-11T07:19:43;101395.08;;;18.73;60.72
62946;BME280;52164;52.212;-1.010;2022-08-11T07:22:31;101394.84;;;18.86;60.37
62946;BME280;52164;52.212;-1.010;2022-08-11T07:25:21;101396.77;;;18.98;60.12
62946;BME280;52164;52.212;-1.010;2022-08-11T07:28:16;101395.27;;;19.09;59.85
62946;BME280;52164;52.212;-1.010;2022-08-11T07:31:06;101399.19;;;19.20;59.56
62946;BME280;52164;52.212;-1.010;2022-08-11T07:33:44;101391.02;;;19.29;59.46
62946;BME280;52164;52.212;-1.010;2022-08-11T07:36:11;101395.68;;;19.40;59.21
62946;BME280;52164;52.212;-1.010;2022-08-11T07:38:41;101394.19;;;19.50;58.92
62946;BME280;52164;52.212;-1.010;2022-08-11T07:41:10;101395.04;;;19.60;58.77
62946;BME280;52164;52.212;-1.010;2022-08-11T07:43:38;101391.41;;;19.68;58.62
62946;BME280;52164;52.212;-1.010;2022-08-11T07:46:04;101392.29;;;19.77;58.42
62946;BME280;52164;52.212;-1.010;2022-08-11T07:48:51;101390.27;;;19.87;58.43
62946;BME280;52164;52.212;-1.010;2022-08-11T07:51:37;101395.27;;;19.97;58.24
62946;BME280;52164;52.212;-1.010;2022-08-11T07:54:23;101393.02;;;20.07;58.04
62946;BME280;52164;52.212;-1.010;2022-08-11T07:56:48;101394.95;;;20.16;57.95
62946;BME280;52164;52.212;-1.010;2022-08-11T07:59:15;101394.55;;;20.25;57.78
62946;BME280;52164;52.212;-1.010;2022-08-11T08:02:01;101394.13;;;20.34;57.55
62946;BME280;52164;52.212;-1.010;2022-08-11T08:04:46;101397.83;;;20.45;57.33
62946;BME280;52164;52.212;-1.010;2022-08-11T08:07:32;101396.64;;;20.56;57.50
62946;BME280;52164;52.212;-1.010;2022-08-11T08:10:18;101395.45;;;20.67;57.39
62946;BME280;52164;52.212;-1.010;2022-08-11T08:13:05;101388.23;;;20.78;57.01
62946;BME280;52164;52.212;-1.010;2022-08-11T08:15:51;101386.28;;;20.89;56.80
62946;BME280;52164;52.212;-1.010;2022-08-11T08:18:37;101388.30;;;21.01;56.20
62946;BME280;52164;52.212;-1.010;2022-08-11T08:21:04;101388.36;;;21.11;55.96
62946;BME280;52164;52.212;-1.010;2022-08-11T08:23:39;101389.88;;;21.21;55.24
62946;BME280;52164;52.212;-1.010;2022-08-11T08:26:05;101385.76;;;21.32;54.83
62946;BME280;52164;52.212;-1.010;2022-08-11T08:28:51;101385.73;;;21.44;54.18
62946;BME280;52164;52.212;-1.010;2022-08-11T08:31:17;101386.88;;;21.55;53.78
62946;BME280;52164;52.212;-1.010;2022-08-11T08:33:43;101381.42;;;21.66;53.77
62946;BME280;52164;52.212;-1.010;2022-08-11T08:36:09;101384.17;;;21.77;53.59
62946;BME280;52164;52.212;-1.010;2022-08-11T08:38:39;101383.11;;;21.87;53.15
62946;BME280;52164;52.212;-1.010;2022-08-11T08:41:05;101382.98;;;21.96;52.62
62946;BME280;52164;52.212;-1.010;2022-08-11T08:43:30;101381.16;;;22.07;52.63
62946;BME280;52164;52.212;-1.010;2022-08-11T08:45:56;101378.05;;;22.18;52.55
62946;BME280;52164;52.212;-1.010;2022-08-11T08:48:23;101376.23;;;22.29;52.39
62946;BME280;52164;52.212;-1.010;2022-08-11T08:50:55;101378.11;;;22.39;52.24
62946;BME280;52164;52.212;-1.010;2022-08-11T08:53:44;101377.16;;;22.50;51.89
62946;BME280;52164;52.212;-1.010;2022-08-11T08:56:10;101372.04;;;22.61;51.62
62946;BME280;52164;52.212;-1.010;2022-08-11T08:58:36;101370.71;;;22.72;51.71
62946;BME280;52164;52.212;-1.010;2022-08-11T09:01:02;101366.81;;;22.84;51.50
62946;BME280;52164;52.212;-1.010;2022-08-11T09:03:28;101365.33;;;22.94;51.15
62946;BME280;52164;52.212;-1.010;2022-08-11T09:05:54;101363.71;;;23.03;50.70
62946;BME280;52164;52.212;-1.010;2022-08-11T09:08:20;101359.49;;;23.14;50.16
62946;BME280;52164;52.212;-1.010;2022-08-11T09:10:46;101352.89;;;23.25;49.56
62946;BME280;52164;52.212;-1.010;2022-08-11T09:13:33;101348.73;;;23.38;48.91
62946;BME280;52164;52.212;-1.010;2022-08-11T09:15:59;101354.50;;;23.49;48.41
62946;BME280;52164;52.212;-1.010;2022-08-11T09:18:24;101348.98;;;23.59;48.09
62946;BME280;52164;52.212;-1.010;2022-08-11T09:20:50;101345.70;;;23.68;47.65
62946;BME280;52164;52.212;-1.010;2022-08-11T09:23:15;101344.90;;;23.78;47.25
62946;BME280;52164;52.212;-1.010;2022-08-11T09:26:00;101347.34;;;23.90;46.83
62946;BME280;52164;52.212;-1.010;2022-08-11T09:28:46;101344.31;;;24.02;46.60
62946;BME280;52164;52.212;-1.010;2022-08-11T09:31:13;101346.40;;;24.13;46.00
62946;BME280;52164;52.212;-1.010;2022-08-11T09:33:40;101345.95;;;24.22;45.87
62946;BME280;52164;52.212;-1.010;2022-08-11T09:36:06;101342.26;;;24.32;45.44
62946;BME280;52164;52.212;-1.010;2022-08-11T09:38:53;101340.66;;;24.43;45.25
62946;BME280;52164;52.212;-1.010;2022-08-11T09:41:38;101339.08;;;24.54;44.89
62946;BME280;52164;52.212;-1.010;2022-08-11T09:44:04;101340.48;;;24.64;44.26
62946;BME280;52164;52.212;-1.010;2022-08-11T09:46:51;101344.54;;;24.75;44.00
62946;BME280;52164;52.212;-1.010;2022-08-11T09:49:19;101345.41;;;24.84;43.93
62946;BME280;52164;52.212;-1.010;2022-08-11T09:51:45;101345.20;;;24.92;43.95
62946;BME280;52164;52.212;-1.010;2022-08-11T09:54:11;101342.58;;;25.02;42.70
62946;BME280;52164;52.212;-1.010;2022-08-11T09:56:37;101336.49;;;25.11;42.52
62946;BME280;52164;52.212;-1.010;2022-08-11T09:59:22;101337.27;;;25.18;42.52
62946;BME280;52164;52.212;-1.010;2022-08-11T10:01:49;101336.66;;;25.27;42.25
62946;BME280;52164;52.212;-1.010;2022-08-11T10:04:17;101337.26;;;25.37;41.87
62946;BME280;52164;52.212;-1.010;2022-08-11T10:06:44;101337.63;;;25.49;41.68
62946;BME280;52164;52.212;-1.010;2022-08-11T10:09:27;101329.81;;;25.59;40.88
62946;BME280;52164;52.212;-1.010;2022-08-11T10:11:55;101327.92;;;25.67;40.25
62946;BME280;52164;52.212;-1.010;2022-08-11T10:14:21;101325.65;;;25.76;39.73
62946;BME280;52164;52.212;-1.010;2022-08-11T10:17:08;101327.35;;;25.86;39.74
62946;BME280;52164;52.212;-1.010;2022-08-11T10:19:34;101327.95;;;25.95;39.58
62946;BME280;52164;52.212;-1.010;2022-08-11T10:22:01;101327.89;;;26.05;39.06
62946;BME280;52164;52.212;-1.010;2022-08-11T10:24:48;101327.19;;;26.14;38.62
62946;BME280;52164;52.212;-1.010;2022-08-11T10:27:34;101321.40;;;26.24;38.45
62946;BME280;52164;52.212;-1.010;2022-08-11T10:30:00;101326.61;;;26.32;38.03
62946;BME280;52164;52.212;-1.010;2022-08-11T10:32:45;101320.05;;;26.42;37.86
62946;BME280;52164;52.212;-1.010;2022-08-11T10:35:31;101318.90;;;26.53;37.18
62946;BME280;52164;52.212;-1.010;2022-08-11T10:37:57;101316.92;;;26.63;37.51
62946;BME280;52164;52.212;-1.010;2022-08-11T10:40:23;101315.77;;;26.74;37.27
62946;BME280;52164;52.212;-1.010;2022-08-11T10:42:50;101316.16;;;26.84;36.95
62946;BME280;52164;52.212;-1.010;2022-08-11T10:45:37;101317.05;;;26.94;36.20
62946;BME280;52164;52.212;-1.010;2022-08-11T10:48:23;101314.16;;;27.07;36.02
62946;BME280;52164;52.212;-1.010;2022-08-11T10:50:49;101311.34;;;27.18;36.06
62946;BME280;52164;52.212;-1.010;2022-08-11T10:53:37;101309.17;;;27.30;35.86
62946;BME280;52164;52.212;-1.010;2022-08-11T10:56:22;101308.44;;;27.43;35.72
62946;BME280;52164;52.212;-1.010;2022-08-11T10:59:08;101302.21;;;27.55;34.99
62946;BME280;52164;52.212;-1.010;2022-08-11T11:01:34;101295.17;;;27.63;34.92
62946;BME280;52164;52.212;-1.010;2022-08-11T11:04:03;101297.40;;;27.72;34.87
62946;BME280;52164;52.212;-1.010;2022-08-11T11:06:34;101295.32;;;27.82;34.41
62946;BME280;52164;52.212;-1.010;2022-08-11T11:11:36;101292.91;;;28.10;33.03
62946;BME280;52164;52.212;-1.010;2022-08-11T11:14:24;101287.84;;;28.21;33.69
62946;BME280;52164;52.212;-1.010;2022-08-11T11:17:12;101282.55;;;28.39;33.65
62946;BME280;52164;52.212;-1.010;2022-08-11T11:19:59;101284.54;;;28.57;33.50
62946;BME280;52164;52.212;-1.010;2022-08-11T11:22:27;101282.70;;;28.75;33.19
62946;BME280;52164;52.212;-1.010;2022-08-11T11:25:06;101282.02;;;28.94;32.51
62946;BME280;52164;52.212;-1.010;2022-08-11T11:28:09;101281.92;;;29.09;31.89
62946;BME280;52164;52.212;-1.010;2022-08-11T11:30:19;101278.60;;;29.24;31.27
62946;BME280;52164;52.212;-1.010;2022-08-11T11:32:49;101272.02;;;29.34;30.60
62946;BME280;52164;52.212;-1.010;2022-08-11T11:35:24;101272.70;;;29.49;30.22
62946;BME280;52164;52.212;-1.010;2022-08-11T11:37:50;101273.39;;;29.63;30.11
62946;BME280;52164;52.212;-1.010;2022-08-11T11:40:17;101273.10;;;29.76;30.01
62946;BME280;52164;52.212;-1.010;2022-08-11T11:42:46;101273.44;;;29.90;29.49
62946;BME280;52164;52.212;-1.010;2022-08-11T11:45:14;101273.19;;;30.07;28.98
62946;BME280;52164;52.212;-1.010;2022-08-11T11:47:40;101272.92;;;30.23;28.93
62946;BME280;52164;52.212;-1.010;2022-08-11T11:50:06;101275.77;;;30.40;29.04
62946;BME280;52164;52.212;-1.010;2022-08-11T11:52:32;101279.02;;;30.60;29.14
62946;BME280;52164;52.212;-1.010;2022-08-11T11:54:58;101273.72;;;30.77;28.25
62946;BME280;52164;52.212;-1.010;2022-08-11T11:57:25;101265.77;;;30.95;27.72
62946;BME280;52164;52.212;-1.010;2022-08-11T12:00:11;101265.83;;;31.12;27.34
62946;BME280;52164;52.212;-1.010;2022-08-11T12:02:58;101261.48;;;31.31;27.21
62946;BME280;52164;52.212;-1.010;2022-08-11T12:05:24;101260.70;;;31.46;26.84
62946;BME280;52164;52.212;-1.010;2022-08-11T12:07:50;101257.60;;;31.58;26.69
62946;BME280;52164;52.212;-1.010;2022-08-11T12:10:36;101251.27;;;31.71;26.67
62946;BME280;52164;52.212;-1.010;2022-08-11T12:13:02;101253.40;;;31.81;26.13
62946;BME280;52164;52.212;-1.010;2022-08-11T12:15:48;101250.05;;;31.93;25.67
62946;BME280;52164;52.212;-1.010;2022-08-11T12:18:14;101246.30;;;32.01;25.02
62946;BME280;52164;52.212;-1.010;2022-08-11T12:20:41;101243.54;;;32.10;25.30
62946;BME280;52164;52.212;-1.010;2022-08-11T12:23:06;101240.92;;;32.20;25.23
62946;BME280;52164;52.212;-1.010;2022-08-11T12:25:52;101239.23;;;32.33;25.48
62946;BME280;52164;52.212;-1.010;2022-08-11T12:28:37;101237.45;;;32.43;25.20
62946;BME280;52164;52.212;-1.010;2022-08-11T12:31:04;101235.60;;;32.50;25.10
62946;BME280;52164;52.212;-1.010;2022-08-11T12:33:30;101231.97;;;32.60;24.93
62946;BME280;52164;52.212;-1.010;2022-08-11T12:35:56;101228.23;;;32.68;24.79
62946;BME280;52164;52.212;-1.010;2022-08-11T12:38:23;101223.39;;;32.75;25.02
62946;BME280;52164;52.212;-1.010;2022-08-11T12:40:49;101221.58;;;32.81;24.82
62946;BME280;52164;52.212;-1.010;2022-08-11T12:43:35;101222.79;;;32.92;24.86
62946;BME280;52164;52.212;-1.010;2022-08-11T12:46:21;101221.27;;;32.99;24.85
62946;BME280;52164;52.212;-1.010;2022-08-11T12:48:48;101220.45;;;33.04;24.67
62946;BME280;52164;52.212;-1.010;2022-08-11T12:51:37;101215.77;;;33.09;23.92
62946;BME280;52164;52.212;-1.010;2022-08-11T12:56:54;101208.54;;;33.16;23.56
62946;BME280;52164;52.212;-1.010;2022-08-11T12:59:42;101202.96;;;33.28;22.83
62946;BME280;52164;52.212;-1.010;2022-08-11T13:02:28;101200.84;;;33.37;22.97
62946;BME280;52164;52.212;-1.010;2022-08-11T13:05:14;101198.52;;;33.49;23.09
62946;BME280;52164;52.212;-1.010;2022-08-11T13:07:41;101196.23;;;33.59;23.47
62946;BME280;52164;52.212;-1.010;2022-08-11T13:10:07;101190.33;;;33.67;23.53
62946;BME280;52164;52.212;-1.010;2022-08-11T13:12:33;101189.02;;;33.71;23.21
62946;BME280;52164;52.212;-1.010;2022-08-11T13:15:17;101187.88;;;33.77;23.03
62946;BME280;52164;52.212;-1.010;2022-08-11T13:17:43;101179.30;;;33.81;23.09
62946;BME280;52164;52.212;-1.010;2022-08-11T13:20:10;101179.70;;;33.83;23.18
62946;BME280;52164;52.212;-1.010;2022-08-11T13:22:37;101176.64;;;33.86;22.72
62946;BME280;52164;52.212;-1.010;2022-08-11T13:25:03;101174.81;;;33.92;23.03
62946;BME280;52164;52.212;-1.010;2022-08-11T13:27:29;101176.41;;;34.04;23.20
62946;BME280;52164;52.212;-1.010;2022-08-11T13:29:55;101177.84;;;34.17;22.99
62946;BME280;52164;52.212;-1.010;2022-08-11T13:32:41;101175.38;;;34.36;23.02
62946;BME280;52164;52.212;-1.010;2022-08-11T13:35:08;101161.53;;;34.56;22.45
62946;BME280;52164;52.212;-1.010;2022-08-11T13:37:36;101163.71;;;34.79;21.80
62946;BME280;52164;52.212;-1.010;2022-08-11T13:40:02;101161.09;;;35.11;21.23
62946;BME280;52164;52.212;-1.010;2022-08-11T13:42:27;101158.83;;;35.48;21.55
62946;BME280;52164;52.212;-1.010;2022-08-11T13:44:53;101150.88;;;35.88;20.11
62946;BME280;52164;52.212;-1.010;2022-08-11T13:47:20;101147.99;;;36.40;20.06
62946;BME280;52164;52.212;-1.010;2022-08-11T13:49:49;101145.58;;;37.14;19.63
62946;BME280;52164;52.212;-1.010;2022-08-11T13:52:15;101145.02;;;38.05;18.35
62946;BME280;52164;52.212;-1.010;2022-08-11T13:54:42;101138.91;;;39.09;17.69
62946;BME280;52164;52.212;-1.010;2022-08-11T13:57:08;101140.54;;;40.19;16.79
62946;BME280;52164;52.212;-1.010;2022-08-11T13:59:35;101134.86;;;41.21;15.84
62946;BME280;52164;52.212;-1.010;2022-08-11T14:02:04;101136.69;;;42.12;15.59
62946;BME280;52164;52.212;-1.010;2022-08-11T14:04:31;101135.02;;;43.01;14.96
62946;BME280;52164;52.212;-1.010;2022-08-11T14:06:58;101130.33;;;43.80;14.13
62946;BME280;52164;52.212;-1.010;2022-08-11T14:09:25;101128.02;;;44.56;13.31
62946;BME280;52164;52.212;-1.010;2022-08-11T14:11:52;101125.89;;;45.28;12.48
62946;BME280;52164;52.212;-1.010;2022-08-11T14:14:40;101128.89;;;46.00;12.13
62946;BME280;52164;52.212;-1.010;2022-08-11T14:17:07;101125.80;;;46.54;11.71
62946;BME280;52164;52.212;-1.010;2022-08-11T14:19:36;101121.13;;;47.12;11.07
62946;BME280;52164;52.212;-1.010;2022-08-11T14:22:03;101119.23;;;47.66;10.75
62946;BME280;52164;52.212;-1.010;2022-08-11T14:24:34;101121.23;;;48.07;10.47
62946;BME280;52164;52.212;-1.010;2022-08-11T14:27:00;101114.61;;;48.42;10.62
62946;BME280;52164;52.212;-1.010;2022-08-11T14:29:26;101115.27;;;48.77;10.36
62946;BME280;52164;52.212;-1.010;2022-08-11T14:31:54;101111.52;;;49.05;9.92
62946;BME280;52164;52.212;-1.010;2022-08-11T14:34:21;101107.70;;;49.30;9.76
62946;BME280;52164;52.212;-1.010;2022-08-11T14:36:48;101107.02;;;49.60;9.74
62946;BME280;52164;52.212;-1.010;2022-08-11T14:39:17;101103.92;;;49.24;9.72
62946;BME280;52164;52.212;-1.010;2022-08-11T14:41:46;101097.27;;;47.60;10.81
62946;BME280;52164;52.212;-1.010;2022-08-11T14:44:33;101095.88;;;45.54;11.99
62946;BME280;52164;52.212;-1.010;2022-08-11T14:47:19;101093.67;;;43.77;12.86